Aérodrome :
LOGIN :

S'inscrire | Disclaimer

   EN    FR    IT 

 










Légende :    VFR   VFR Marginal   IFR   IFR Intensif   IFR Très Intensif
Visi : 
Plafond : 
>= 8 km
>= 3000ft
5 à 8 km
1000 à 3000 ft
1500m à 5 km
500 à 1000 ft
800 à 1500m
200 à 500 ft
< 800m
< 200 ft
Symboles :   Orages  Brouillard  Fortes neiges  Fortes précipitations  Vent > 20 kt
SIGMETs :   Divers  Orages  Givrage  Turbulence  Onde Orograph.  Cendres Volcan.







- Altitude de l'aérodrome : 297 ft
- Code IATA : UIP
- Voir les cartes d'approche


LFRQ - Quimper Pluguffan

DERNIER METAR :
  • 172200Z AUTO 02005KT 350V050 7000 NSC 11/11 Q1021

METARs EXPIRÉS :
  • 172130Z AUTO 01004KT 6000 NSC 12/11 Q1021
  • 172100Z AUTO 02004KT 7000 NSC 12/12 Q1020 TEMPO 4000 BR OVC004
  • 172030Z AUTO 02005KT 9999 FEW039 BKN056 13/12 Q1020 TEMPO 4000 BR OVC004
  • 172000Z AUTO 03006KT 9999 OVC036 13/13 Q1020 TEMPO 4000 -RA BKN005
  • 171930Z AUTO 36005KT 9999 FEW025 OVC031 13/13 Q1020 TEMPO 4000 -RA BKN005

TAF TAF LFRQ
Valide du 17 à 18h jusqu'au 18 à 18h UTC


171700Z 1718/1818 16005KT 9999 FEW006 BKN030
PROB30
TEMPO 1718/1722 4000 -RA BKN005
TEMPO 1722/1806 4000 BR OVC004
BECMG 1806/1809 SCT030
Pas de NOTAMs connus pour ce terrain.



MET'MAP, la Météo Aéronautique d'un coup d'oeil ! - Copyright ORBIFLY Décembre 2007 - Disclaimer

ORBIFLY MET'MAP TEAM :

Programmation & Développement : Alexandra Zaïnal
Conception & Développement : Baudouin d'Aumeries
Co-Programmation & Développement : Marc-Olivier Méhu
Soutien technique & logistique : Manuel Goepfert

Contact : metmap@orbifly.com




SOURCES & CREDITS :

   NOAA